• Join FlightAware (Why Join?)
  • Login
  • US Flag 
10:15AM EDT


 

Airport Tracker/Info


-or-


 

Live Flight TrackerFlight Track Log ✈ JIA2217 ✈ 21-Apr-2012 ✈ KCLT - KXNA

Flight Track Log - Related Links

Times and Time Zones

All times are in EDT time to prevent confusion due to time zone crossing. See the JIA2217 flight status page for this flight to view local times or setup timezone preferences in your user account.

Time Position Orientation Groundspeed Altitude Reporting Facility
EDT Latitude Longitude Course Direction KTS MPH feet Rate Location/Type
08:31PM 35.2188 -80.9806 139° Southeast  Level FlightAware Approximate
08:32PM 35.1892 -80.9492 179° South 174 200 1,800  Level FAA TRACON SMA TRACON (SMA)
08:32PM 35.1511 -80.9483 225° Southwest 200 230 3,000 2,220 Climbing FAA TRACON SMA TRACON (SMA)
08:33PM 35.1214 -80.9853 272° West 232 267 4,800 2,460 Climbing FAA TRACON SMA TRACON (SMA)
08:34PM 35.1228 -81.0394 273° West 258 297 6,300 2,280 Climbing FAA TRACON SMA TRACON (SMA)
08:34PM 35.1258 -81.1022 273° West 265 305 7,900 2,340 Climbing FAA TRACON SMA TRACON (SMA)
08:35PM 35.1292 -81.1703 275° West 273 314 9,500 2,700 Climbing FAA TRACON SMA TRACON (SMA)
08:35PM 35.1331 -81.2272 274° West 281 323 11,300 2,640 Climbing Atlanta Center
08:37PM 35.1397 -81.3389 273° West 316 364 14,000 2,400 Climbing Atlanta Center
08:38PM 35.1442 -81.4403 270° West 316 364 16,500 2,520 Climbing Atlanta Center
08:39PM 35.1442 -81.5444 264° West 310 357 19,100 2,340 Climbing Atlanta Center
08:40PM 35.1358 -81.6489 265° West 310 357 21,200 1,860 Climbing Atlanta Center
08:41PM 35.1294 -81.7456 265° West 315 362 22,900 1,620 Climbing Atlanta Center
08:42PM 35.1208 -81.8550 265° West 321 369 24,500 1,500 Climbing Atlanta Center
08:43PM 35.1125 -81.9694 265° West 337 388 25,900 1,560 Climbing Atlanta Center
08:44PM 35.1039 -82.0864 265° West 342 394 27,700 1,500 Climbing Atlanta Center
08:45PM 35.0953 -82.2008 272° West 348 400 28,900 3,120 Climbing Atlanta Center
08:46PM 35.0989 -82.3150 288° West 348 400 34,000 720 Climbing Atlanta Center
08:47PM 35.1342 -82.4489 288° West 375 432 30,400 -1,560 Descending Atlanta Center
08:48PM 35.1692 -82.5778 287° West 386 444 30,900 660 Climbing Atlanta Center
08:49PM 35.2042 -82.7144 289° West 404 465 31,800 900 Climbing Atlanta Center
08:50PM 35.2411 -82.8486 286° West 421 484 32,800 1,020 Climbing Atlanta Center
08:51PM 35.2736 -82.9906 287° West 427 491 33,900 600 Climbing Atlanta Center
08:52PM 35.3081 -83.1328 286° West 422 486 34,000  Climbing Atlanta Center
08:53PM 35.3403 -83.2750 289° West 428 493 34,000 960 Level Atlanta Center
08:54PM 35.3786 -83.4097 287° West 433 498 36,000 480 Climbing Atlanta Center
08:55PM 35.4128 -83.5494 287° West 433 498 35,000 -540 Descending Atlanta Center
08:56PM 35.4486 -83.6894 286° West 433 498 35,000  Level Atlanta Center
08:57PM 35.4803 -83.8297 273° West 433 498 35,000 480 Level Atlanta Center
08:58PM 35.4867 -83.9647 270° West 419 482 36,000 480 Climbing Atlanta Center
08:59PM 35.4867 -84.1025 269° West 408 470 36,000  Level Atlanta Center
09:00PM 35.4844 -84.2403 269° West 403 464 36,000  Level Atlanta Center
09:01PM 35.4819 -84.3831 271° West 408 470 36,100 900 Climbing Atlanta Center
09:02PM 35.4836 -84.5208 283° West 408 470 37,900 900 Climbing Atlanta Center
09:03PM 35.5081 -84.6511 292° West 403 464 38,000  Climbing Atlanta Center
09:04PM 35.5511 -84.7842 291° West 403 464 38,000  Level Atlanta Center
09:05PM 35.6244 -85.0167 292° West 393 452 38,000  Level Memphis Center
09:06PM 35.6631 -85.1367 291° West 387 445 38,000 -240 Level Memphis Center
09:07PM 35.6992 -85.2547 290° West 382 440 37,600 -1,260 Descending Memphis Center
09:08PM 35.7353 -85.3753 291° West 382 440 35,600 -2,220 Descending Memphis Center
09:09PM 35.7711 -85.4881 291° West 375 432 33,200 -2,400 Descending Memphis Center
09:10PM 35.8069 -85.6036 290° West 370 426 30,800 -2,100 Descending Memphis Center
09:11PM 35.8403 -85.7197 293° West 364 419 29,000 -1,440 Descending Memphis Center
09:12PM 35.8847 -85.8503 291° West 369 425 28,000 -540 Descending Memphis Center
09:13PM 35.9225 -85.9739 290° West 375 432 28,000  Level Memphis Center
09:14PM 35.9581 -86.0950 290° West 386 444 28,000  Level Memphis Center
09:15PM 35.9911 -86.2061 291° West 386 444 28,000  Level Memphis Center
09:16PM 36.0306 -86.3325 290° West 389 448 28,000  Level Memphis Center
09:17PM 36.0681 -86.4592 290° West 389 448 28,000  Level Memphis Center
09:18PM 36.1053 -86.5831 285° West 394 453 28,000  Level Memphis Center
09:19PM 36.1342 -86.7156 274° West 399 459 28,000  Level Memphis Center
09:20PM 36.1428 -86.8667 274° West 404 465 28,000  Level Memphis Center
09:21PM 36.1506 -87.0025 274° West 404 465 28,000  Level Memphis Center
09:22PM 36.1586 -87.1411 273° West 404 465 28,000  Level Memphis Center
09:23PM 36.1642 -87.2772 274° West 404 465 28,000  Level Memphis Center
09:24PM 36.1717 -87.4131 273° West 404 465 28,000  Level Memphis Center
09:25PM 36.1767 -87.5389 274° West 404 465 28,000  Level Memphis Center
09:26PM 36.1836 -87.6750 273° West 404 465 28,000  Level Memphis Center
09:27PM 36.1886 -87.8111 274° West 404 465 28,000  Level Memphis Center
09:28PM 36.1956 -87.9472 271° West 404 465 28,000  Level Memphis Center
09:29PM 36.1983 -88.0858 275° West 404 465 28,000  Level Memphis Center
09:30PM 36.2067 -88.2169 272° West 399 459 28,000  Level Memphis Center
09:31PM 36.2111 -88.3583 272° West 404 465 28,000  Level Memphis Center
09:32PM 36.2156 -88.4944 273° West 404 465 28,000  Level Memphis Center
09:33PM 36.2217 -88.6333 271° West 404 465 28,000  Level Memphis Center
09:34PM 36.2236 -88.7722 273° West 404 465 28,000  Level Memphis Center
09:35PM 36.2292 -88.9058 271° West 399 459 28,000  Level Memphis Center
09:36PM 36.2308 -89.0422 273° West 399 459 28,000  Level Memphis Center
09:37PM 36.2364 -89.1939 271° West 405 466 28,000  Level Memphis Center
09:38PM 36.2378 -89.3328 273° West 405 466 28,000  Level Memphis Center
09:39PM 36.2431 -89.4692 273° West 405 466 28,000  Level Memphis Center
09:40PM 36.2481 -89.6081 271° West 405 466 28,000  Level Memphis Center
09:41PM 36.2508 -89.7444 271° West 405 466 28,000  Level Memphis Center
09:42PM 36.2536 -89.8808 271° West 405 466 28,000  Level Memphis Center
09:43PM 36.2561 -90.0172 272° West 405 466 28,000  Level Memphis Center
09:44PM 36.2606 -90.1486 271° West 400 460 28,000  Level Memphis Center
09:45PM 36.2628 -90.2850 271° West 400 460 28,000  Level Memphis Center
09:46PM 36.2650 -90.4189 271° West 400 460 28,000  Level Memphis Center
09:47PM 36.2669 -90.5553 272° West 400 460 28,000  Level Memphis Center
09:48PM 36.2708 -90.6889 272° West 400 460 28,000  Level Memphis Center
09:49PM 36.2744 -90.8281 271° West 400 460 28,000  Level Memphis Center
09:50PM 36.2761 -90.9492 270° West 400 460 28,000  Level Memphis Center
09:51PM 36.2753 -91.0831 273° West 400 460 28,000  Level Memphis Center
09:52PM 36.2808 -91.2219 269° West 400 460 28,000  Level Memphis Center
09:53PM 36.2797 -91.3583 272° West 400 460 28,000  Level Memphis Center
09:54PM 36.2828 -91.4950 266° West 400 460 28,000  Level Memphis Center
09:55PM 36.2753 -91.6286 275° West 400 460 28,000  Level Memphis Center
09:56PM 36.2861 -91.7781 271° West 400 460 28,000  Level Memphis Center
09:57PM 36.2886 -91.9147 270° West 400 460 28,000  Level Memphis Center
09:58PM 36.2889 -92.0511 270° West 400 460 28,000  Level Memphis Center
09:59PM 36.2892 -92.1875 270° West 400 460 28,000 -300 Level Memphis Center
10:00PM 36.2892 -92.3217 270° West 400 460 27,400 -1,140 Descending Memphis Center
10:01PM 36.2889 -92.4581 272° West 400 460 25,800 -1,620 Descending Memphis Center
10:02PM 36.2931 -92.5919 270° West 400 460 24,200 -1,620 Descending Memphis Center
10:03PM 36.2928 -92.7208 269° West 395 455 22,600 -1,620 Descending Memphis Center
10:04PM 36.2900 -92.8494 270° West 382 440 21,000 -1,620 Descending Memphis Center
10:05PM 36.2897 -92.9731 270° West 372 428 19,400 -1,620 Descending Memphis Center
10:06PM 36.2892 -93.0964 271° West 365 420 17,800 -1,560 Descending Memphis Center
10:07PM 36.2906 -93.2175 268° West 365 420 16,300 -900 Descending Memphis Center
10:08PM 36.2878 -93.3333 264° West 360 414 16,000 -840 Descending Memphis Center
10:09PM 36.2792 -93.4386 261° West 346 398 14,700 -1,500 Descending Memphis Center
10:10PM 36.2661 -93.5386 263° West 310 357 13,000 -1,680 Descending Memphis Center
10:11PM 36.2575 -93.6283 263° West 291 335 11,400 -1,620 Descending Memphis Center
10:12PM 36.2489 -93.7206 261° West 279 321 9,800 -1,680 Descending Memphis Center
10:13PM 36.2356 -93.8203 263° West 279 321 8,100 -1,680 Descending Memphis Center
10:14PM 36.2267 -93.9153 263° West 279 321 6,500 -1,080 Descending Memphis Center
10:15PM 36.2178 -94.0047 261° West 279 321 6,000 -660 Descending Memphis Center
10:16PM 36.2072 -94.0867 261° West 264 304 5,200 -1,020 Descending Memphis Center
10:17PM 36.1989 -94.1531 261° West 232 267 4,000 -900 Descending Memphis Center
10:18PM 36.1906 -94.2169 281° West 207 238 3,500 -660 Descending Memphis Center
10:19PM 36.1994 -94.2714 281° West 181 208 2,700 -840 Descending Memphis Center